Time;durP1;ratioP1;P1;durP2;ratioP2;P2;SDS_P1;SDS_P2;PMS_P1;PMS_P2;Temp;Humidity;BMP_temperature;BMP_pressure;BME280_temperature;BME280_humidity;BME280_pressure;Samples;Min_cycle;Max_cycle;Signal;HPM_P1;HPM_P2
2023/07/09 00:01:51;;;;;;;5.93;4.57;;;;;;;27.29;53.87;101477.09;5055115;28;20056;-58
2023/07/09 00:04:19;;;;;;;6.20;4.72;;;;;;;27.30;53.91;101489.66;5054954;28;20052;-58
2023/07/09 00:06:47;;;;;;;7.57;4.78;;;;;;;27.30;53.72;101484.22;5054658;28;20044;-58
2023/07/09 00:09:17;;;;;;;6.07;5.22;;;;;;;27.31;53.90;101485.13;5054925;28;20064;-58
2023/07/09 00:11:45;;;;;;;8.63;4.53;;;;;;;27.32;53.72;101486.81;5054723;28;20055;-58
2023/07/09 00:14:14;;;;;;;6.63;4.32;;;;;;;27.31;53.67;101476.94;5054511;28;20044;-58
2023/07/09 00:16:44;;;;;;;5.45;4.60;;;;;;;27.32;53.63;101482.22;5054475;28;20048;-58
2023/07/09 00:19:13;;;;;;;6.40;4.53;;;;;;;27.31;53.68;101472.38;5054729;28;20418;-58
2023/07/09 00:21:41;;;;;;;7.20;4.55;;;;;;;27.31;53.60;101477.81;5054612;28;20044;-58
2023/07/09 00:24:10;;;;;;;6.28;4.57;;;;;;;27.32;53.40;101474.06;5054415;28;20048;-58
2023/07/09 00:26:40;;;;;;;6.03;4.95;;;;;;;27.33;53.27;101472.19;5054368;28;20434;-58
2023/07/09 00:29:12;;;;;;;5.22;4.15;;;;;;;27.33;53.43;101477.63;5054458;28;20040;-58
2023/07/09 00:31:41;;;;;;;6.25;4.75;;;;;;;27.33;53.57;101483.06;5053335;28;20426;-58
2023/07/09 00:34:13;;;;;;;6.65;4.32;;;;;;;27.32;53.49;101470.50;5054755;28;20056;-58
2023/07/09 00:36:45;;;;;;;4.97;3.60;;;;;;;27.32;53.53;101475.94;5054606;28;20056;-58
2023/07/09 00:39:20;;;;;;;6.68;4.43;;;;;;;27.32;53.34;101484.94;5054695;28;20049;-58
2023/07/09 00:41:50;;;;;;;6.78;4.50;;;;;;;27.33;53.38;101477.63;5054319;28;20049;-58
2023/07/09 00:44:20;;;;;;;7.22;4.50;;;;;;;27.33;53.33;101477.63;5053832;28;20056;-58
2023/07/09 00:46:47;;;;;;;5.70;4.32;;;;;;;27.32;53.45;101475.94;5054320;28;20049;-58
2023/07/09 00:49:26;;;;;;;7.32;4.55;;;;;;;27.32;53.29;101471.34;5052767;28;20060;-58
2023/07/09 00:51:55;;;;;;;6.30;4.30;;;;;;;27.33;53.34;101473.03;5054134;28;20045;-58
2023/07/09 00:54:30;;;;;;;5.65;4.30;;;;;;;27.32;53.40;101468.63;5053895;28;20049;-58
2023/07/09 00:57:03;;;;;;;6.65;4.63;;;;;;;27.32;53.58;101475.94;5052517;28;20049;-59
2023/07/09 00:59:31;;;;;;;;;;;;;;;27.31;53.35;101476.94;5053436;28;20387;-58
2023/07/09 01:02:00;;;;;;;6.20;4.88;;;;;;;27.32;53.36;101484.09;5053769;28;19921;-58
2023/07/09 01:04:28;;;;;;;5.20;4.40;;;;;;;27.31;53.58;101475.09;5052893;28;20045;-59
2023/07/09 01:06:56;;;;;;;6.60;4.32;;;;;;;27.32;53.41;101484.09;5053131;28;20049;-58
2023/07/09 01:09:25;;;;;;;5.97;4.50;;;;;;;27.32;53.41;101486.81;5053868;28;20053;-58
2023/07/09 01:11:56;;;;;;;5.93;4.53;;;;;;;27.33;53.51;101485.78;5052558;28;20068;-58
2023/07/09 01:14:25;;;;;;;6.90;5.00;;;;;;;27.32;53.54;101486.81;5053886;28;20383;-58
2023/07/09 01:17:00;;;;;;;10.73;5.72;;;;;;;27.33;53.27;101483.06;5053561;28;20406;-58
2023/07/09 01:19:30;;;;;;;6.07;4.38;;;;;;;27.32;53.40;101492.25;5054051;28;20068;-58
2023/07/09 01:22:00;;;;;;;5.93;5.15;;;;;;;27.31;53.41;101496.84;5053621;28;20101;-58
2023/07/09 01:24:48;;;;;;;6.97;3.95;;;;;;;27.31;53.29;101485.97;5053623;28;20044;-58
2023/07/09 01:27:18;;;;;;;6.47;4.47;;;;;;;27.32;53.27;101487.66;5053519;28;20049;-58
2023/07/09 01:29:49;;;;;;;5.28;4.10;;;;;;;27.32;53.08;101475.94;5053376;28;20045;-58
2023/07/09 01:32:18;;;;;;;6.05;4.35;;;;;;;27.32;53.17;101486.81;5053500;28;20049;-58
2023/07/09 01:34:48;;;;;;;6.50;5.35;;;;;;;27.31;53.31;101485.97;5053588;28;20071;-58
2023/07/09 01:37:21;;;;;;;6.10;5.00;;;;;;;27.31;53.13;101479.69;5053157;28;20049;-58
2023/07/09 01:39:50;;;;;;;5.95;4.53;;;;;;;27.32;53.39;101475.94;5053696;28;20068;-58
2023/07/09 01:42:21;;;;;;;5.47;4.18;;;;;;;27.32;53.11;101475.94;5053190;28;20049;-58
2023/07/09 01:44:53;;;;;;;7.60;5.28;;;;;;;27.32;53.37;101475.94;5052433;28;20056;-57
2023/07/09 01:47:23;;;;;;;6.03;4.45;;;;;;;27.32;53.40;101473.22;5053187;28;20049;-60
2023/07/09 01:49:56;;;;;;;6.50;4.90;;;;;;;27.33;53.14;101478.47;5052207;28;20053;-60
2023/07/09 01:52:29;;;;;;;5.88;4.85;;;;;;;27.32;53.42;101465.91;5053308;28;20045;-57
2023/07/09 01:54:58;;;;;;;6.45;4.72;;;;;;;27.32;53.44;101465.91;5052548;28;20053;-57
2023/07/09 01:57:33;;;;;;;6.72;4.72;;;;;;;27.33;53.25;101469.47;5052042;28;20053;-60
2023/07/09 02:00:10;;;;;;;6.90;5.15;;;;;;;27.33;53.47;101462.16;5052324;28;20045;-60
2023/07/09 02:02:43;;;;;;;7.28;5.10;;;;;;;27.33;53.44;101466.75;5059888;28;20052;-60
2023/07/09 02:05:15;;;;;;;6.07;4.60;;;;;;;27.32;53.26;101471.34;5053588;28;20041;-60
2023/07/09 02:07:42;;;;;;;6.47;4.57;;;;;;;27.33;53.23;101472.19;5052773;28;20509;-59
2023/07/09 02:10:11;;;;;;;4.85;4.30;;;;;;;27.32;53.62;101474.06;5052308;28;20060;-59
2023/07/09 02:12:38;;;;;;;5.80;4.90;;;;;;;27.33;53.80;101472.19;5051673;28;20410;-60
2023/07/09 02:15:06;;;;;;;6.00;4.72;;;;;;;27.33;53.78;101475.75;5051678;28;20049;-60
2023/07/09 02:17:34;;;;;;;5.82;4.57;;;;;;;27.34;53.71;101487.47;5055602;28;20063;-59
2023/07/09 02:20:04;;;;;;;8.25;5.45;;;;;;;27.34;53.59;101479.31;5055306;28;20053;-60
2023/07/09 02:22:31;;;;;;;6.80;5.22;;;;;;;27.33;53.53;101489.34;5055496;28;20048;-60
2023/07/09 02:24:59;;;;;;;6.55;5.07;;;;;;;27.35;53.47;101491.91;5057106;28;20352;-60
2023/07/09 02:27:28;;;;;;;8.70;4.90;;;;;;;27.33;53.71;101494.78;5056168;28;20071;-58
2023/07/09 02:29:56;;;;;;;6.85;4.65;;;;;;;27.34;53.70;101495.63;5057364;28;20052;-57
2023/07/09 02:32:26;;;;;;;5.85;4.63;;;;;;;27.33;53.42;101493.94;5057002;28;20048;-57
2023/07/09 02:34:54;;;;;;;6.43;5.22;;;;;;;27.34;53.68;101503.78;5056902;28;20063;-57
2023/07/09 02:37:25;;;;;;;8.65;5.13;;;;;;;27.34;53.73;101495.63;5055478;28;20650;-60
2023/07/09 02:39:52;;;;;;;7.15;5.15;;;;;;;27.33;53.82;101500.22;5054940;28;20049;-60
2023/07/09 02:42:22;;;;;;;5.95;4.68;;;;;;;27.32;53.54;101495.81;5056388;28;20067;-60
2023/07/09 02:44:50;;;;;;;5.72;4.30;;;;;;;27.32;53.46;101498.53;5055469;28;20080;-60
2023/07/09 02:47:19;;;;;;;5.45;4.60;;;;;;;27.31;53.79;101502.28;5055255;28;20060;-58
2023/07/09 02:49:48;;;;;;;6.10;5.03;;;;;;;27.32;53.72;101506.69;5055033;28;20041;-57
2023/07/09 02:52:16;;;;;;;7.32;4.97;;;;;;;27.32;53.67;101500.41;5055724;28;20052;-57
2023/07/09 02:54:43;;;;;;;6.20;4.65;;;;;;;27.32;53.59;101509.41;5054923;28;20072;-57
2023/07/09 02:57:11;;;;;;;6.45;4.80;;;;;;;27.31;53.55;101504.16;5056393;28;20044;-60
2023/07/09 02:59:39;;;;;;;6.60;4.88;;;;;;;27.31;53.57;101502.28;5056317;28;20048;-60
2023/07/09 03:02:06;;;;;;;6.97;4.55;;;;;;;27.32;53.63;101514.00;5055219;28;20069;-60
2023/07/09 03:04:33;;;;;;;6.82;4.88;;;;;;;27.30;53.56;101514.13;5055194;28;20049;-59
2023/07/09 03:07:01;;;;;;;6.07;4.78;;;;;;;27.30;53.79;101505.97;5054904;28;20053;-58
2023/07/09 03:09:29;;;;;;;5.95;4.78;;;;;;;27.31;53.69;101515.03;5054444;28;20053;-57
2023/07/09 03:11:56;;;;;;;6.50;5.03;;;;;;;27.31;53.50;101523.19;5055084;28;20049;-57
2023/07/09 03:14:24;;;;;;;6.43;4.45;;;;;;;27.31;53.71;101524.03;5054609;28;20056;-57
2023/07/09 03:16:52;;;;;;;5.93;4.35;;;;;;;27.30;53.63;101519.56;5054867;28;20049;-61
2023/07/09 03:19:20;;;;;;;8.25;5.43;;;;;;;27.31;53.62;101523.19;5055947;28;20049;-61
2023/07/09 03:21:47;;;;;;;6.28;4.90;;;;;;;27.29;53.89;101520.59;5054800;28;20056;-61
2023/07/09 03:24:18;;;;;;;5.57;4.55;;;;;;;27.28;53.71;101528.94;5054531;28;20049;-61
2023/07/09 03:26:46;;;;;;;7.10;5.15;;;;;;;27.26;53.53;101529.09;5054166;28;20501;-62
2023/07/09 03:29:14;;;;;;;6.55;4.90;;;;;;;27.26;53.45;101530.97;5054831;28;20044;-63
2023/07/09 03:31:41;;;;;;;5.57;4.50;;;;;;;27.25;53.44;101529.25;5056021;28;20049;-63
2023/07/09 03:34:09;;;;;;;5.93;4.60;;;;;;;27.22;53.55;101525.00;5055665;28;20391;-60
2023/07/09 03:36:37;;;;;;;5.03;4.53;;;;;;;27.22;53.62;101530.44;5054658;28;20474;-61
2023/07/09 03:39:06;;;;;;;7.40;5.28;;;;;;;27.21;53.37;101526.03;5055300;28;20052;-62
2023/07/09 03:41:34;;;;;;;5.75;4.90;;;;;;;27.21;53.42;101527.91;5055788;28;20049;-62
2023/07/09 03:44:02;;;;;;;5.90;4.57;;;;;;;27.21;53.32;101525.19;5055945;28;20048;-62
2023/07/09 03:46:30;;;;;;;6.35;5.00;;;;;;;27.20;53.87;101531.66;5055305;28;20041;-60
2023/07/09 03:48:59;;;;;;;6.95;5.45;;;;;;;27.20;53.57;101520.78;5055073;28;20052;-60
2023/07/09 03:51:27;;;;;;;6.40;4.43;;;;;;;27.20;53.59;101526.22;5054444;28;20060;-60
2023/07/09 03:53:55;;;;;;;6.18;5.35;;;;;;;27.19;53.65;101527.22;5055068;28;20052;-60
2023/07/09 03:56:22;;;;;;;6.50;4.82;;;;;;;27.18;53.37;101523.63;5055268;28;20048;-61
2023/07/09 03:58:49;;;;;;;7.40;5.28;;;;;;;27.18;53.33;101523.63;5054880;28;20048;-61
2023/07/09 04:01:17;;;;;;;6.38;5.15;;;;;;;27.19;53.61;101524.50;5055403;28;20491;-61
2023/07/09 04:03:44;;;;;;;6.55;4.60;;;;;;;27.19;53.76;101529.94;5054592;28;20045;-62
2023/07/09 04:06:12;;;;;;;6.55;4.88;;;;;;;27.19;53.79;101535.38;5055018;28;20041;-62
2023/07/09 04:08:39;;;;;;;8.15;5.45;;;;;;;27.19;53.70;101527.22;5054333;28;20049;-63
2023/07/09 04:11:07;;;;;;;7.10;5.65;;;;;;;27.19;53.45;101527.22;5055083;28;20471;-63
2023/07/09 04:13:34;;;;;;;7.55;5.35;;;;;;;27.18;53.50;101528.22;5054461;28;20056;-63
2023/07/09 04:16:01;;;;;;;9.27;4.93;;;;;;;27.18;53.78;101534.50;5054720;28;20052;-62
2023/07/09 04:18:30;;;;;;;6.68;5.38;;;;;;;27.19;53.56;101535.38;5055049;28;20402;-63
2023/07/09 04:20:57;;;;;;;6.40;4.88;;;;;;;27.16;53.56;101528.41;5054389;28;20058;-61
2023/07/09 04:23:24;;;;;;;6.80;5.20;;;;;;;27.17;53.53;101534.69;5054958;28;20049;-61
2023/07/09 04:25:52;;;;;;;7.80;6.22;;;;;;;27.16;53.57;101538.44;5054434;28;20048;-62
2023/07/09 04:28:19;;;;;;;7.60;5.60;;;;;;;27.17;53.43;101538.25;5054160;28;20048;-62
2023/07/09 04:30:51;;;;;;;8.98;5.25;;;;;;;27.16;53.68;101536.56;5054058;28;20068;-63
2023/07/09 04:33:20;;;;;;;8.75;5.25;;;;;;;27.17;53.64;101542.84;5054528;28;20102;-63
2023/07/09 04:35:49;;;;;;;7.30;5.32;;;;;;;27.16;53.59;101541.16;5053374;28;20045;-61
2023/07/09 04:38:20;;;;;;;6.65;5.10;;;;;;;27.16;53.49;101539.28;5053338;28;20044;-63
2023/07/09 04:40:47;;;;;;;6.95;4.72;;;;;;;27.16;53.65;101542.00;5054124;28;20056;-63
2023/07/09 04:43:14;;;;;;;7.28;5.00;;;;;;;27.16;53.49;101538.44;5054289;28;20052;-63
2023/07/09 04:45:42;;;;;;;7.75;5.95;;;;;;;27.15;53.55;101536.75;5054092;28;20049;-62
2023/07/09 04:48:09;;;;;;;7.25;5.25;;;;;;;27.15;53.50;101540.31;5054097;28;20048;-61
2023/07/09 04:50:37;;;;;;;7.10;5.63;;;;;;;27.15;53.39;101539.47;5054008;28;20049;-61
2023/07/09 04:53:04;;;;;;;6.20;5.03;;;;;;;27.16;53.82;101541.16;5054080;28;20048;-61
2023/07/09 04:55:31;;;;;;;7.30;5.70;;;;;;;27.15;53.55;101543.03;5054079;28;20041;-61
2023/07/09 04:57:59;;;;;;;7.80;5.60;;;;;;;27.15;53.78;101539.47;5054289;28;20041;-61
2023/07/09 05:00:26;;;;;;;6.88;5.22;;;;;;;27.15;53.49;101545.75;5054217;28;20056;-63
2023/07/09 05:02:54;;;;;;;8.60;5.68;;;;;;;27.16;53.44;101543.88;5053926;28;20053;-63
2023/07/09 05:05:21;;;;;;;6.82;5.47;;;;;;;27.14;53.72;101546.72;5053889;28;20041;-63
2023/07/09 05:07:50;;;;;;;6.82;5.70;;;;;;;27.14;53.53;101549.44;5053764;28;20041;-63
2023/07/09 05:10:18;;;;;;;7.43;4.85;;;;;;;27.16;53.22;101552.03;5053848;28;20041;-63
2023/07/09 05:12:54;;;;;;;6.68;5.32;;;;;;;27.16;53.45;101560.19;5053435;28;20406;-63
2023/07/09 05:15:22;;;;;;;6.13;5.05;;;;;;;27.15;53.67;101544.91;5053837;28;20056;-63
2023/07/09 05:17:50;;;;;;;6.55;5.18;;;;;;;27.15;53.91;101544.91;5053734;28;20041;-62
2023/07/09 05:20:17;;;;;;;7.03;5.28;;;;;;;27.14;53.69;101546.72;5053549;28;20045;-63
2023/07/09 05:22:45;;;;;;;6.57;5.07;;;;;;;27.15;53.80;101542.19;5052823;28;20055;-62
2023/07/09 05:25:12;;;;;;;6.05;4.90;;;;;;;27.15;53.91;101551.19;5052483;28;20282;-62
2023/07/09 05:27:39;;;;;;;6.30;4.95;;;;;;;27.15;54.00;101553.91;5053759;28;20048;-61
2023/07/09 05:30:07;;;;;;;7.28;5.30;;;;;;;27.15;53.95;101558.47;5053122;28;20044;-61
2023/07/09 05:32:36;;;;;;;7.13;5.05;;;;;;;27.15;53.82;101553.06;5053581;28;20052;-61
2023/07/09 05:35:04;;;;;;;6.68;5.28;;;;;;;27.15;53.91;101548.47;5053405;28;20044;-61
2023/07/09 05:37:32;;;;;;;6.05;4.90;;;;;;;27.15;54.04;101553.91;5053467;28;20052;-61
2023/07/09 05:39:59;;;;;;;9.02;5.57;;;;;;;27.16;53.98;101562.91;5053322;28;20049;-61
2023/07/09 05:42:26;;;;;;;6.20;5.13;;;;;;;27.15;54.01;101562.06;5053796;28;20051;-61
2023/07/09 05:44:54;;;;;;;5.50;4.57;;;;;;;27.17;54.10;101556.44;5053457;28;20487;-61
2023/07/09 05:47:21;;;;;;;5.28;4.57;;;;;;;27.17;54.13;101564.59;5053657;28;20490;-62
2023/07/09 05:49:50;;;;;;;6.00;4.80;;;;;;;27.17;54.23;101564.59;5053149;28;20053;-63
2023/07/09 05:52:22;;;;;;;5.53;4.50;;;;;;;27.17;53.99;101575.47;5056962;28;20045;-63
2023/07/09 05:54:51;;;;;;;5.22;4.70;;;;;;;27.18;54.27;101577.16;5057545;28;20072;-63
2023/07/09 05:57:18;;;;;;;5.55;4.85;;;;;;;27.17;54.12;101576.31;5057831;28;20486;-62
2023/07/09 05:59:45;;;;;;;5.35;4.65;;;;;;;27.17;54.21;101575.47;5056949;28;20487;-62
2023/07/09 06:02:16;;;;;;;5.65;5.05;;;;;;;27.17;54.23;101578.19;5057343;28;20049;-63
2023/07/09 06:04:43;;;;;;;5.70;5.10;;;;;;;27.17;54.27;101580.91;5056906;28;20049;-63
2023/07/09 06:07:13;;;;;;;5.95;4.97;;;;;;;27.18;53.97;101582.59;5057203;28;20041;-61
2023/07/09 06:09:41;;;;;;;5.63;4.13;;;;;;;27.16;54.32;101582.78;5057331;28;20392;-61
2023/07/09 06:12:09;;;;;;;5.82;4.85;;;;;;;27.18;54.26;101588.88;5057148;28;20387;-61
2023/07/09 06:14:36;;;;;;;6.28;5.25;;;;;;;27.17;54.01;101589.91;5057067;28;20052;-61
2023/07/09 06:17:04;;;;;;;6.05;4.63;;;;;;;27.19;53.95;101584.31;5056722;28;20414;-61
2023/07/09 06:19:31;;;;;;;5.25;4.75;;;;;;;27.19;54.09;101587.88;5057145;28;20487;-61
2023/07/09 06:21:59;;;;;;;6.50;4.65;;;;;;;27.18;54.07;101583.44;5056929;28;20406;-61
2023/07/09 06:24:26;;;;;;;7.28;5.22;;;;;;;27.20;54.16;101594.16;5056988;28;20045;-61
2023/07/09 06:26:53;;;;;;;5.63;4.93;;;;;;;27.20;54.26;101591.44;5056530;28;20047;-62
2023/07/09 06:29:21;;;;;;;6.00;4.82;;;;;;;27.20;54.38;101584.13;5056805;28;20048;-63
2023/07/09 06:31:48;;;;;;;6.25;5.03;;;;;;;27.22;54.19;101589.41;5056546;28;20053;-63
2023/07/09 06:34:15;;;;;;;6.15;4.72;;;;;;;27.21;54.19;101583.13;5056757;28;20380;-63
2023/07/09 06:36:43;;;;;;;5.63;4.50;;;;;;;27.22;54.12;101582.09;5056499;28;20049;-61
2023/07/09 06:39:11;;;;;;;7.88;4.65;;;;;;;27.23;54.31;101582.97;5056640;28;20041;-61
2023/07/09 06:41:41;;;;;;;5.78;4.65;;;;;;;27.23;54.03;101580.25;5056441;28;20044;-61
2023/07/09 06:44:26;;;;;;;7.50;4.93;;;;;;;27.23;54.20;101582.97;5055400;28;20057;-61
2023/07/09 06:46:54;;;;;;;5.03;4.40;;;;;;;27.25;54.09;101583.63;5056588;28;20048;-61
2023/07/09 06:49:21;;;;;;;5.72;4.78;;;;;;;27.27;54.03;101587.06;5056487;28;20045;-61
2023/07/09 06:51:49;;;;;;;5.30;4.25;;;;;;;27.26;54.21;101585.34;5056267;28;20052;-61
2023/07/09 06:54:17;;;;;;;6.15;4.22;;;;;;;27.27;53.94;101581.63;5056384;28;20056;-61
2023/07/09 06:56:44;;;;;;;6.05;4.88;;;;;;;27.27;54.09;101573.47;5056054;28;20410;-61
2023/07/09 06:59:12;;;;;;;6.03;4.22;;;;;;;27.27;54.28;101570.75;5056381;28;20045;-61
2023/07/09 07:01:39;;;;;;;5.50;4.53;;;;;;;27.27;54.13;101566.16;5055917;28;20045;-61
2023/07/09 07:04:06;;;;;;;6.97;5.22;;;;;;;27.28;53.97;101567.00;5056501;28;20410;-61
2023/07/09 07:06:34;;;;;;;5.97;4.90;;;;;;;27.29;54.08;101569.53;5056402;28;20052;-61
2023/07/09 07:09:01;;;;;;;5.15;4.43;;;;;;;27.29;54.02;101574.13;5056127;28;20045;-61
2023/07/09 07:11:30;;;;;;;5.97;5.05;;;;;;;27.30;54.11;101567.66;5056031;28;20052;-61
2023/07/09 07:13:58;;;;;;;6.68;4.80;;;;;;;27.30;54.07;101564.94;5056638;28;20044;-61
2023/07/09 07:16:25;;;;;;;5.82;4.30;;;;;;;27.30;54.03;101567.66;5056039;28;20052;-61
2023/07/09 07:18:52;;;;;;;5.32;4.53;;;;;;;27.31;54.08;101574.84;5056225;28;20052;-62
2023/07/09 07:21:20;;;;;;;7.22;5.15;;;;;;;27.30;54.21;101559.50;5055905;28;20052;-61
2023/07/09 07:23:47;;;;;;;5.72;4.95;;;;;;;27.32;53.95;101568.38;5055653;28;20053;-61
2023/07/09 07:26:16;;;;;;;6.90;4.72;;;;;;;27.32;53.86;101563.78;5055812;28;20049;-61
2023/07/09 07:28:44;;;;;;;6.22;5.18;;;;;;;27.32;54.13;101571.09;5055663;28;20041;-65
2023/07/09 07:31:11;;;;;;;5.05;4.30;;;;;;;27.33;54.06;101575.50;5054581;28;20391;-59
2023/07/09 07:33:41;;;;;;;5.85;4.45;;;;;;;27.34;54.12;101574.47;5056127;28;20049;-59
2023/07/09 07:36:09;;;;;;;7.03;5.20;;;;;;;27.33;54.20;101570.91;5055730;28;20495;-60
2023/07/09 07:38:39;;;;;;;6.93;5.65;;;;;;;27.33;53.41;101570.91;5055783;28;20048;-60
2023/07/09 07:41:07;;;;;;;6.90;5.25;;;;;;;27.33;52.90;101573.63;5055077;28;20049;-60
2023/07/09 07:43:35;;;;;;;6.63;5.50;;;;;;;27.33;52.78;101570.06;5055615;28;20357;-60
2023/07/09 07:46:02;;;;;;;8.00;6.07;;;;;;;27.32;52.34;101569.22;5055891;28;20053;-60
2023/07/09 07:48:30;;;;;;;6.13;5.10;;;;;;;27.33;52.52;101573.63;5055478;28;20045;-60
2023/07/09 07:51:02;;;;;;;7.00;5.90;;;;;;;27.34;52.39;101566.31;5055491;28;20051;-60
2023/07/09 07:53:31;;;;;;;6.05;5.13;;;;;;;27.34;52.52;101578.03;5055663;28;20049;-60
2023/07/09 07:55:58;;;;;;;8.25;5.50;;;;;;;27.35;52.41;101571.59;5055432;28;20049;-59
2023/07/09 07:58:26;;;;;;;7.00;5.55;;;;;;;27.33;52.40;101570.91;5055183;28;20052;-59
2023/07/09 08:00:57;;;;;;;6.03;5.15;;;;;;;27.36;52.50;101575.19;5055246;28;20414;-59
2023/07/09 08:03:25;;;;;;;6.07;5.15;;;;;;;27.36;52.62;101567.03;5054904;28;20048;-59
2023/07/09 08:05:53;;;;;;;6.70;4.97;;;;;;;27.37;52.82;101571.44;5055379;28;20048;-59
2023/07/09 08:08:20;;;;;;;8.23;5.75;;;;;;;27.39;52.68;101573.97;5054941;28;20407;-59
2023/07/09 08:10:51;;;;;;;7.40;5.30;;;;;;;27.40;52.70;101565.66;5053879;28;20049;-59
2023/07/09 08:13:19;;;;;;;7.50;5.38;;;;;;;27.40;52.71;101571.09;5054710;28;20052;-60
2023/07/09 08:15:46;;;;;;;6.22;5.13;;;;;;;27.41;52.68;101566.50;5053987;28;20057;-60
2023/07/09 08:18:16;;;;;;;6.95;5.75;;;;;;;27.41;52.72;101564.63;5055213;28;20041;-60
2023/07/09 08:20:45;;;;;;;6.28;5.22;;;;;;;27.42;53.00;101570.91;5054586;28;20494;-60
2023/07/09 08:23:12;;;;;;;7.85;5.93;;;;;;;27.43;52.99;101569.91;5055048;28;20057;-60
2023/07/09 08:25:40;;;;;;;7.68;6.13;;;;;;;27.43;52.64;101569.91;5054712;28;20060;-60
2023/07/09 08:28:07;;;;;;;8.60;6.40;;;;;;;27.43;52.67;101570.78;5054584;28;20052;-59
2023/07/09 08:30:36;;;;;;;7.85;5.40;;;;;;;27.44;52.97;101567.03;5054719;28;20406;-58
2023/07/09 08:33:03;;;;;;;8.18;6.18;;;;;;;27.44;52.82;101566.19;5053479;28;20057;-58
2023/07/09 08:35:34;;;;;;;6.82;5.72;;;;;;;27.45;52.74;101566.00;5042356;28;20042;-58
2023/07/09 08:38:03;;;;;;;;;;;;;;;27.43;53.04;101559.91;5028585;28;20042;-60
2023/07/09 08:40:31;;;;;;;7.40;5.70;;;;;;;27.46;53.03;101559.53;5045055;28;19920;-59
2023/07/09 08:43:11;;;;;;;8.32;6.10;;;;;;;27.47;53.22;101558.53;5053028;28;20053;-57
2023/07/09 08:45:48;;;;;;;7.60;5.75;;;;;;;27.48;53.06;101562.09;5041682;28;20048;-58
2023/07/09 08:48:39;;;;;;;8.15;5.68;;;;;;;27.48;52.94;101568.41;5042393;28;20045;-58
2023/07/09 08:51:35;;;;;;;8.80;6.03;;;;;;;27.49;53.15;101563.81;5034105;28;20053;-58
2023/07/09 08:54:03;;;;;;;8.60;6.43;;;;;;;27.49;52.92;101570.09;5033228;28;20062;-58
2023/07/09 08:56:33;;;;;;;7.72;6.05;;;;;;;27.50;52.65;101565.50;5033700;28;20057;-59
2023/07/09 08:59:02;;;;;;;6.50;5.03;;;;;;;27.50;52.68;101555.47;5030367;28;20033;-59
2023/07/09 09:01:45;;;;;;;6.93;5.78;;;;;;;27.51;52.79;101556.34;5042909;28;20387;-60
2023/07/09 09:04:28;;;;;;;6.40;5.63;;;;;;;27.51;52.87;101557.19;5034152;28;20052;-59
2023/07/09 09:07:16;;;;;;;6.93;5.40;;;;;;;27.52;52.41;101560.75;5045042;28;20407;-59
2023/07/09 09:09:59;;;;;;;9.10;5.95;;;;;;;27.52;52.69;101560.75;5047124;28;20052;-59
2023/07/09 09:12:35;;;;;;;6.55;5.20;;;;;;;27.52;52.55;101553.44;5033720;28;20049;-59
2023/07/09 09:15:25;;;;;;;5.95;4.78;;;;;;;27.54;52.98;101561.41;5013928;28;20053;-58
2023/07/09 09:17:58;;;;;;;6.82;5.45;;;;;;;27.53;52.82;101562.44;5025157;28;20069;-60
2023/07/09 09:20:28;;;;;;;6.78;5.22;;;;;;;27.53;52.51;101566.00;5033647;28;20046;-60
2023/07/09 09:23:14;;;;;;;8.77;5.25;;;;;;;27.53;52.84;101554.28;5022509;28;20041;-59
2023/07/09 09:25:48;;;;;;;6.55;5.85;;;;;;;27.54;52.60;101567.69;5013010;28;20046;-60
2023/07/09 09:28:35;;;;;;;7.35;5.65;;;;;;;27.56;52.63;101570.28;5023260;28;20050;-60
2023/07/09 09:31:03;;;;;;;8.35;5.65;;;;;;;27.56;52.59;101573.00;5013877;28;20050;-59
2023/07/09 09:33:41;;;;;;;9.05;5.72;;;;;;;27.57;52.43;101569.25;5013322;28;20042;-60
2023/07/09 09:36:36;;;;;;;7.75;5.97;;;;;;;27.56;52.57;101571.13;5014044;28;20056;-60
2023/07/09 09:39:03;;;;;;;8.63;5.65;;;;;;;27.57;52.67;101567.38;5013888;28;20058;-60
2023/07/09 09:41:36;;;;;;;7.35;5.70;;;;;;;27.59;52.52;101569.94;5013726;28;20053;-60
2023/07/09 09:44:04;;;;;;;;;;;;;;;27.57;53.03;101570.09;5014448;28;20045;-60
2023/07/09 09:46:33;;;;;;;9.27;6.10;;;;;;;27.60;52.89;101577.06;5036252;28;19920;-58
2023/07/09 09:49:02;;;;;;;8.43;6.22;;;;;;;27.62;52.56;101572.31;5013626;28;20042;-58
2023/07/09 09:51:29;;;;;;;7.25;6.20;;;;;;;27.62;52.41;101569.59;5013286;28;20054;-58
2023/07/09 09:53:59;;;;;;;8.32;6.43;;;;;;;27.63;52.63;101568.59;5013325;28;20061;-58
2023/07/09 09:56:36;;;;;;;7.05;5.97;;;;;;;27.64;52.41;101572.16;5013585;28;20053;-58
2023/07/09 09:59:05;;;;;;;6.55;5.82;;;;;;;27.63;52.57;101568.59;5013364;28;20042;-58
2023/07/09 10:01:35;;;;;;;5.82;5.20;;;;;;;27.63;52.64;101574.03;5013106;28;20049;-58
2023/07/09 10:04:04;;;;;;;8.30;6.68;;;;;;;27.64;52.44;101564.84;5013469;28;20057;-58
2023/07/09 10:06:50;;;;;;;6.80;5.07;;;;;;;27.63;52.48;101563.16;5012315;28;20424;-60
2023/07/09 10:09:28;;;;;;;7.57;5.68;;;;;;;27.63;52.78;101565.88;5014258;28;20077;-60
2023/07/09 10:12:15;;;;;;;7.90;5.85;;;;;;;27.65;52.79;101562.97;5033226;28;20045;-60
2023/07/09 10:15:20;;;;;;;6.93;5.28;;;;;;;27.63;52.80;101559.53;5033267;28;20472;-59
2023/07/09 10:17:50;;;;;;;7.82;5.85;;;;;;;27.64;52.69;101555.84;5032932;28;20064;-59
2023/07/09 10:20:37;;;;;;;6.05;5.10;;;;;;;27.66;52.64;101559.22;5032851;28;20047;-59
2023/07/09 10:23:34;;;;;;;6.60;5.90;;;;;;;27.66;52.71;101564.66;5032711;28;20053;-59
2023/07/09 10:26:15;;;;;;;7.93;6.18;;;;;;;27.67;53.08;101566.34;5033399;28;20379;-59
2023/07/09 10:29:14;;;;;;;7.93;5.80;;;;;;;27.68;52.60;101558.03;5032290;28;20052;-58
2023/07/09 10:31:55;;;;;;;7.22;5.43;;;;;;;27.69;53.05;101559.72;5032407;28;20046;-59
2023/07/09 10:35:03;;;;;;;7.00;5.40;;;;;;;27.71;53.17;101554.09;5032297;28;20049;-58
2023/07/09 10:37:51;;;;;;;7.25;6.03;;;;;;;27.73;53.08;101554.81;5033261;28;20049;-57
2023/07/09 10:40:29;;;;;;;6.97;6.28;;;;;;;27.75;53.05;101555.50;5036380;28;20513;-57
2023/07/09 10:43:00;;;;;;;7.10;5.45;;;;;;;27.76;53.29;101554.50;5036830;28;20053;-57
2023/07/09 10:45:39;;;;;;;8.15;5.30;;;;;;;27.77;53.21;101550.75;5036406;28;20495;-57
2023/07/09 10:48:17;;;;;;;8.05;6.00;;;;;;;27.81;53.02;101547.53;5041659;28;20045;-59
2023/07/09 10:50:50;;;;;;;7.70;6.13;;;;;;;27.85;52.67;101542.59;5036098;28;20048;-60
2023/07/09 10:53:33;;;;;;;8.10;5.95;;;;;;;27.89;52.83;101548.53;5036431;28;20049;-60
2023/07/09 10:56:07;;;;;;;8.82;5.65;;;;;;;27.89;52.40;101546.66;5036094;28;20475;-60
2023/07/09 10:58:41;;;;;;;6.07;5.40;;;;;;;27.90;52.78;101548.34;5035744;28;20049;-60
2023/07/09 11:01:13;;;;;;;5.88;5.25;;;;;;;27.91;52.38;101546.47;5035897;28;20049;-60
2023/07/09 11:03:54;;;;;;;9.88;5.65;;;;;;;27.92;52.45;101545.47;5026947;28;20049;-60
2023/07/09 11:06:48;;;;;;;6.55;5.55;;;;;;;27.92;51.99;101538.16;5015910;28;20077;-57
2023/07/09 11:09:29;;;;;;;7.78;5.20;;;;;;;27.95;52.22;101548.69;5034080;28;20069;-55
2023/07/09 11:12:02;;;;;;;7.22;5.35;;;;;;;27.96;52.27;101539.53;5033706;28;20045;-56
2023/07/09 11:14:43;;;;;;;14.27;7.55;;;;;;;27.97;52.53;101541.22;5048246;28;20049;-57
2023/07/09 11:17:15;;;;;;;12.77;7.55;;;;;;;27.97;52.67;101535.78;5056112;28;20049;-57
2023/07/09 11:19:46;;;;;;;12.02;6.95;;;;;;;27.99;52.30;101538.31;5051417;28;20037;-56
2023/07/09 11:22:21;;;;;;;9.57;6.07;;;;;;;28.00;52.89;101530.00;5035780;28;20045;-57
2023/07/09 11:25:05;;;;;;;8.45;6.15;;;;;;;28.06;52.35;101529.28;5035539;28;20050;-58
2023/07/09 11:27:33;;;;;;;7.45;5.78;;;;;;;28.13;51.48;101529.44;5035913;28;20045;-58
2023/07/09 11:30:05;;;;;;;11.23;6.90;;;;;;;28.19;51.09;101523.28;5023045;28;20045;-56
2023/07/09 11:32:32;;;;;;;8.02;6.18;;;;;;;28.28;50.67;101527.72;5019273;28;20042;-58
2023/07/09 11:35:20;;;;;;;7.43;5.63;;;;;;;28.37;49.83;101527.72;5025832;28;20049;-58
2023/07/09 11:37:47;;;;;;;5.47;4.68;;;;;;;28.57;48.80;101524.41;5016410;28;20499;-52
2023/07/09 11:40:18;;;;;;;8.95;5.68;;;;;;;28.62;48.65;101523.88;5033149;28;20053;-53
2023/07/09 11:42:58;;;;;;;7.73;6.23;;;;;;;28.76;49.16;101527.72;5035363;28;20053;-53
2023/07/09 11:45:32;;;;;;;7.30;5.38;;;;;;;28.83;49.18;101526.00;5035480;28;20045;-51